sensor_id;sensor_type;location;lat;lon;timestamp;P1;durP1;ratioP1;P2;durP2;ratioP2
3819;SDS011;1925;51.356;9.530;2023-06-19T00:00:04;11.30;;;7.00;;
3819;SDS011;1925;51.356;9.530;2023-06-19T00:02:38;10.63;;;6.10;;
3819;SDS011;1925;51.356;9.530;2023-06-19T00:05:04;7.13;;;6.53;;
3819;SDS011;1925;51.356;9.530;2023-06-19T00:07:30;6.63;;;6.03;;
3819;SDS011;1925;51.356;9.530;2023-06-19T00:09:56;6.80;;;6.10;;
3819;SDS011;1925;51.356;9.530;2023-06-19T00:12:22;6.63;;;6.03;;
3819;SDS011;1925;51.356;9.530;2023-06-19T00:14:47;6.83;;;6.10;;
3819;SDS011;1925;51.356;9.530;2023-06-19T00:17:13;7.27;;;6.57;;
3819;SDS011;1925;51.356;9.530;2023-06-19T00:19:43;7.03;;;6.33;;
3819;SDS011;1925;51.356;9.530;2023-06-19T00:22:09;8.83;;;6.20;;
3819;SDS011;1925;51.356;9.530;2023-06-19T00:24:35;6.57;;;5.97;;
3819;SDS011;1925;51.356;9.530;2023-06-19T00:27:01;6.43;;;5.83;;
3819;SDS011;1925;51.356;9.530;2023-06-19T00:29:27;8.43;;;6.00;;
3819;SDS011;1925;51.356;9.530;2023-06-19T00:31:53;6.87;;;6.27;;
3819;SDS011;1925;51.356;9.530;2023-06-19T00:34:19;6.73;;;6.17;;
3819;SDS011;1925;51.356;9.530;2023-06-19T00:36:45;6.53;;;5.83;;
3819;SDS011;1925;51.356;9.530;2023-06-19T00:39:11;7.77;;;6.87;;
3819;SDS011;1925;51.356;9.530;2023-06-19T00:41:38;6.70;;;6.10;;
3819;SDS011;1925;51.356;9.530;2023-06-19T00:44:04;6.53;;;5.90;;
3819;SDS011;1925;51.356;9.530;2023-06-19T00:46:30;6.80;;;6.20;;
3819;SDS011;1925;51.356;9.530;2023-06-19T00:48:56;6.90;;;6.27;;
3819;SDS011;1925;51.356;9.530;2023-06-19T00:51:22;8.00;;;7.17;;
3819;SDS011;1925;51.356;9.530;2023-06-19T00:53:48;7.30;;;6.60;;
3819;SDS011;1925;51.356;9.530;2023-06-19T00:56:14;8.73;;;6.47;;
3819;SDS011;1925;51.356;9.530;2023-06-19T00:58:43;7.13;;;6.37;;
3819;SDS011;1925;51.356;9.530;2023-06-19T01:01:09;9.03;;;6.90;;
3819;SDS011;1925;51.356;9.530;2023-06-19T01:03:35;6.50;;;5.90;;
3819;SDS011;1925;51.356;9.530;2023-06-19T01:06:02;6.37;;;5.77;;
3819;SDS011;1925;51.356;9.530;2023-06-19T01:11:01;8.17;;;7.47;;
3819;SDS011;1925;51.356;9.530;2023-06-19T01:13:37;6.73;;;6.07;;
3819;SDS011;1925;51.356;9.530;2023-06-19T01:16:05;7.07;;;6.47;;
3819;SDS011;1925;51.356;9.530;2023-06-19T01:18:32;6.90;;;6.20;;
3819;SDS011;1925;51.356;9.530;2023-06-19T01:21:14;8.73;;;6.63;;
3819;SDS011;1925;51.356;9.530;2023-06-19T01:23:40;8.13;;;7.43;;
3819;SDS011;1925;51.356;9.530;2023-06-19T01:26:07;7.80;;;7.13;;
3819;SDS011;1925;51.356;9.530;2023-06-19T01:28:33;8.13;;;6.30;;
3819;SDS011;1925;51.356;9.530;2023-06-19T01:31:00;7.13;;;6.53;;
3819;SDS011;1925;51.356;9.530;2023-06-19T01:33:27;8.07;;;7.27;;
3819;SDS011;1925;51.356;9.530;2023-06-19T01:35:54;7.67;;;7.00;;
3819;SDS011;1925;51.356;9.530;2023-06-19T01:38:21;8.30;;;7.50;;
3819;SDS011;1925;51.356;9.530;2023-06-19T01:40:50;7.50;;;6.80;;
3819;SDS011;1925;51.356;9.530;2023-06-19T01:43:17;8.43;;;7.73;;
3819;SDS011;1925;51.356;9.530;2023-06-19T01:45:44;7.37;;;6.73;;
3819;SDS011;1925;51.356;9.530;2023-06-19T01:48:10;7.17;;;6.47;;
3819;SDS011;1925;51.356;9.530;2023-06-19T01:50:36;10.13;;;7.40;;
3819;SDS011;1925;51.356;9.530;2023-06-19T01:53:02;13.83;;;7.90;;
3819;SDS011;1925;51.356;9.530;2023-06-19T01:55:28;6.50;;;5.90;;
3819;SDS011;1925;51.356;9.530;2023-06-19T01:57:54;8.53;;;7.73;;
3819;SDS011;1925;51.356;9.530;2023-06-19T02:00:19;7.50;;;6.80;;
3819;SDS011;1925;51.356;9.530;2023-06-19T02:02:45;6.97;;;6.33;;
3819;SDS011;1925;51.356;9.530;2023-06-19T02:05:11;12.47;;;6.80;;
3819;SDS011;1925;51.356;9.530;2023-06-19T02:07:38;7.50;;;6.53;;
3819;SDS011;1925;51.356;9.530;2023-06-19T02:10:04;7.50;;;6.70;;
3819;SDS011;1925;51.356;9.530;2023-06-19T02:12:30;6.20;;;5.60;;
3819;SDS011;1925;51.356;9.530;2023-06-19T02:14:56;7.10;;;5.93;;
3819;SDS011;1925;51.356;9.530;2023-06-19T02:17:22;7.40;;;6.70;;
3819;SDS011;1925;51.356;9.530;2023-06-19T02:19:48;7.20;;;6.50;;
3819;SDS011;1925;51.356;9.530;2023-06-19T02:22:14;7.40;;;6.70;;
3819;SDS011;1925;51.356;9.530;2023-06-19T02:24:40;7.10;;;6.50;;
3819;SDS011;1925;51.356;9.530;2023-06-19T02:27:06;7.10;;;6.43;;
3819;SDS011;1925;51.356;9.530;2023-06-19T02:29:32;7.20;;;6.00;;
3819;SDS011;1925;51.356;9.530;2023-06-19T02:32:02;7.77;;;7.07;;
3819;SDS011;1925;51.356;9.530;2023-06-19T02:34:28;7.17;;;6.50;;
3819;SDS011;1925;51.356;9.530;2023-06-19T02:36:54;6.83;;;6.23;;
3819;SDS011;1925;51.356;9.530;2023-06-19T02:39:20;6.80;;;6.20;;
3819;SDS011;1925;51.356;9.530;2023-06-19T02:41:46;5.93;;;5.33;;
3819;SDS011;1925;51.356;9.530;2023-06-19T02:44:12;7.60;;;6.90;;
3819;SDS011;1925;51.356;9.530;2023-06-19T02:46:38;7.07;;;6.30;;
3819;SDS011;1925;51.356;9.530;2023-06-19T02:49:04;11.63;;;5.80;;
3819;SDS011;1925;51.356;9.530;2023-06-19T02:51:30;6.33;;;5.73;;
3819;SDS011;1925;51.356;9.530;2023-06-19T02:53:56;7.27;;;6.57;;
3819;SDS011;1925;51.356;9.530;2023-06-19T02:56:23;10.70;;;6.47;;
3819;SDS011;1925;51.356;9.530;2023-06-19T02:58:49;7.33;;;6.40;;
3819;SDS011;1925;51.356;9.530;2023-06-19T03:01:15;6.90;;;6.30;;
3819;SDS011;1925;51.356;9.530;2023-06-19T03:03:42;7.10;;;6.40;;
3819;SDS011;1925;51.356;9.530;2023-06-19T03:06:08;7.80;;;6.27;;
3819;SDS011;1925;51.356;9.530;2023-06-19T03:08:34;6.70;;;6.10;;
3819;SDS011;1925;51.356;9.530;2023-06-19T03:11:00;7.17;;;6.47;;
3819;SDS011;1925;51.356;9.530;2023-06-19T03:13:29;7.00;;;6.40;;
3819;SDS011;1925;51.356;9.530;2023-06-19T03:15:55;7.53;;;6.40;;
3819;SDS011;1925;51.356;9.530;2023-06-19T03:18:21;8.87;;;6.60;;
3819;SDS011;1925;51.356;9.530;2023-06-19T03:20:47;7.40;;;6.70;;
3819;SDS011;1925;51.356;9.530;2023-06-19T03:23:13;6.83;;;6.23;;
3819;SDS011;1925;51.356;9.530;2023-06-19T03:25:39;7.30;;;6.60;;
3819;SDS011;1925;51.356;9.530;2023-06-19T03:28:07;8.00;;;7.20;;
3819;SDS011;1925;51.356;9.530;2023-06-19T03:30:33;7.60;;;6.90;;
3819;SDS011;1925;51.356;9.530;2023-06-19T03:32:59;7.23;;;6.53;;
3819;SDS011;1925;51.356;9.530;2023-06-19T03:35:25;7.43;;;6.83;;
3819;SDS011;1925;51.356;9.530;2023-06-19T03:37:51;7.20;;;6.50;;
3819;SDS011;1925;51.356;9.530;2023-06-19T03:40:17;7.03;;;6.30;;
3819;SDS011;1925;51.356;9.530;2023-06-19T03:42:43;20.97;;;7.27;;
3819;SDS011;1925;51.356;9.530;2023-06-19T03:45:09;6.93;;;6.23;;
3819;SDS011;1925;51.356;9.530;2023-06-19T03:47:35;6.97;;;6.37;;
3819;SDS011;1925;51.356;9.530;2023-06-19T03:50:01;7.27;;;6.60;;
3819;SDS011;1925;51.356;9.530;2023-06-19T03:52:27;7.77;;;7.07;;
3819;SDS011;1925;51.356;9.530;2023-06-19T03:54:53;6.70;;;6.10;;
3819;SDS011;1925;51.356;9.530;2023-06-19T03:57:19;7.27;;;6.57;;
3819;SDS011;1925;51.356;9.530;2023-06-19T03:59:45;7.90;;;7.10;;
3819;SDS011;1925;51.356;9.530;2023-06-19T04:02:12;7.17;;;6.43;;
3819;SDS011;1925;51.356;9.530;2023-06-19T04:04:38;8.60;;;6.33;;
3819;SDS011;1925;51.356;9.530;2023-06-19T04:07:04;7.00;;;6.30;;
3819;SDS011;1925;51.356;9.530;2023-06-19T04:09:30;7.20;;;6.50;;
3819;SDS011;1925;51.356;9.530;2023-06-19T04:11:55;5.90;;;5.40;;
3819;SDS011;1925;51.356;9.530;2023-06-19T04:14:21;9.07;;;7.20;;
3819;SDS011;1925;51.356;9.530;2023-06-19T04:16:48;10.57;;;6.70;;
3819;SDS011;1925;51.356;9.530;2023-06-19T04:19:14;7.10;;;6.50;;
3819;SDS011;1925;51.356;9.530;2023-06-19T04:21:40;8.67;;;7.23;;
3819;SDS011;1925;51.356;9.530;2023-06-19T04:24:06;8.53;;;6.37;;
3819;SDS011;1925;51.356;9.530;2023-06-19T04:26:34;7.33;;;6.63;;
3819;SDS011;1925;51.356;9.530;2023-06-19T04:29:01;6.87;;;6.17;;
3819;SDS011;1925;51.356;9.530;2023-06-19T04:31:26;6.70;;;6.13;;
3819;SDS011;1925;51.356;9.530;2023-06-19T04:33:53;7.83;;;7.17;;
3819;SDS011;1925;51.356;9.530;2023-06-19T04:36:21;8.33;;;6.97;;
3819;SDS011;1925;51.356;9.530;2023-06-19T04:38:47;7.30;;;6.30;;
3819;SDS011;1925;51.356;9.530;2023-06-19T04:41:13;7.17;;;6.27;;
3819;SDS011;1925;51.356;9.530;2023-06-19T04:43:39;7.60;;;6.80;;
3819;SDS011;1925;51.356;9.530;2023-06-19T04:46:06;8.00;;;7.20;;
3819;SDS011;1925;51.356;9.530;2023-06-19T04:48:32;7.87;;;7.13;;
3819;SDS011;1925;51.356;9.530;2023-06-19T04:51:02;7.47;;;6.77;;
3819;SDS011;1925;51.356;9.530;2023-06-19T04:53:28;7.67;;;6.70;;
3819;SDS011;1925;51.356;9.530;2023-06-19T04:55:54;7.27;;;6.67;;
3819;SDS011;1925;51.356;9.530;2023-06-19T04:58:20;9.60;;;8.10;;
3819;SDS011;1925;51.356;9.530;2023-06-19T05:00:47;7.00;;;6.30;;
3819;SDS011;1925;51.356;9.530;2023-06-19T05:03:17;7.17;;;6.43;;
3819;SDS011;1925;51.356;9.530;2023-06-19T05:05:43;10.43;;;7.10;;
3819;SDS011;1925;51.356;9.530;2023-06-19T05:08:09;6.80;;;6.10;;
3819;SDS011;1925;51.356;9.530;2023-06-19T05:10:35;6.90;;;6.30;;
3819;SDS011;1925;51.356;9.530;2023-06-19T05:13:01;7.27;;;6.50;;
3819;SDS011;1925;51.356;9.530;2023-06-19T05:15:28;7.80;;;7.00;;
3819;SDS011;1925;51.356;9.530;2023-06-19T05:17:54;8.60;;;7.37;;
3819;SDS011;1925;51.356;9.530;2023-06-19T05:20:20;8.00;;;7.20;;
3819;SDS011;1925;51.356;9.530;2023-06-19T05:22:45;7.33;;;6.63;;
3819;SDS011;1925;51.356;9.530;2023-06-19T05:25:11;9.87;;;7.07;;
3819;SDS011;1925;51.356;9.530;2023-06-19T05:27:37;10.03;;;7.07;;
3819;SDS011;1925;51.356;9.530;2023-06-19T05:30:04;7.97;;;7.17;;
3819;SDS011;1925;51.356;9.530;2023-06-19T05:32:30;8.23;;;7.43;;
3819;SDS011;1925;51.356;9.530;2023-06-19T05:34:56;9.63;;;7.10;;
3819;SDS011;1925;51.356;9.530;2023-06-19T05:37:26;7.97;;;7.03;;
3819;SDS011;1925;51.356;9.530;2023-06-19T05:39:54;8.40;;;7.70;;
3819;SDS011;1925;51.356;9.530;2023-06-19T05:42:20;8.47;;;7.20;;
3819;SDS011;1925;51.356;9.530;2023-06-19T05:44:46;8.53;;;7.33;;
3819;SDS011;1925;51.356;9.530;2023-06-19T05:47:12;7.87;;;7.07;;
3819;SDS011;1925;51.356;9.530;2023-06-19T05:49:41;7.77;;;6.97;;
3819;SDS011;1925;51.356;9.530;2023-06-19T05:52:07;8.53;;;7.77;;
3819;SDS011;1925;51.356;9.530;2023-06-19T05:54:34;10.10;;;7.23;;
3819;SDS011;1925;51.356;9.530;2023-06-19T05:57:00;9.07;;;7.50;;
3819;SDS011;1925;51.356;9.530;2023-06-19T05:59:26;13.90;;;8.13;;
3819;SDS011;1925;51.356;9.530;2023-06-19T06:01:52;11.70;;;8.70;;
3819;SDS011;1925;51.356;9.530;2023-06-19T06:04:20;10.73;;;7.63;;
3819;SDS011;1925;51.356;9.530;2023-06-19T06:06:47;8.37;;;7.57;;
3819;SDS011;1925;51.356;9.530;2023-06-19T06:09:13;8.77;;;7.87;;
3819;SDS011;1925;51.356;9.530;2023-06-19T06:11:40;10.97;;;7.67;;
3819;SDS011;1925;51.356;9.530;2023-06-19T06:14:05;9.30;;;8.10;;
3819;SDS011;1925;51.356;9.530;2023-06-19T06:16:31;7.67;;;7.07;;
3819;SDS011;1925;51.356;9.530;2023-06-19T06:18:57;9.80;;;8.23;;
3819;SDS011;1925;51.356;9.530;2023-06-19T06:21:23;9.23;;;8.33;;
3819;SDS011;1925;51.356;9.530;2023-06-19T06:23:49;10.93;;;8.97;;
3819;SDS011;1925;51.356;9.530;2023-06-19T06:26:15;10.10;;;8.37;;
3819;SDS011;1925;51.356;9.530;2023-06-19T06:28:41;10.20;;;8.27;;
3819;SDS011;1925;51.356;9.530;2023-06-19T06:31:07;9.37;;;8.40;;
3819;SDS011;1925;51.356;9.530;2023-06-19T06:33:33;11.43;;;8.40;;
3819;SDS011;1925;51.356;9.530;2023-06-19T06:35:59;9.10;;;7.50;;
3819;SDS011;1925;51.356;9.530;2023-06-19T06:38:25;9.43;;;7.50;;
3819;SDS011;1925;51.356;9.530;2023-06-19T06:40:51;9.63;;;8.83;;
3819;SDS011;1925;51.356;9.530;2023-06-19T06:43:17;8.63;;;7.80;;
3819;SDS011;1925;51.356;9.530;2023-06-19T06:45:43;9.83;;;8.50;;
3819;SDS011;1925;51.356;9.530;2023-06-19T06:48:09;11.77;;;8.17;;
3819;SDS011;1925;51.356;9.530;2023-06-19T06:50:35;8.67;;;7.80;;
3819;SDS011;1925;51.356;9.530;2023-06-19T06:53:01;9.20;;;7.90;;
3819;SDS011;1925;51.356;9.530;2023-06-19T06:55:27;12.03;;;8.90;;
3819;SDS011;1925;51.356;9.530;2023-06-19T06:57:53;12.07;;;9.07;;
3819;SDS011;1925;51.356;9.530;2023-06-19T07:00:19;13.53;;;8.30;;
3819;SDS011;1925;51.356;9.530;2023-06-19T07:02:45;9.73;;;8.10;;
3819;SDS011;1925;51.356;9.530;2023-06-19T07:05:13;12.63;;;8.37;;
3819;SDS011;1925;51.356;9.530;2023-06-19T07:07:39;8.80;;;8.00;;
3819;SDS011;1925;51.356;9.530;2023-06-19T07:10:05;11.00;;;9.30;;
3819;SDS011;1925;51.356;9.530;2023-06-19T07:12:31;8.47;;;7.67;;
3819;SDS011;1925;51.356;9.530;2023-06-19T07:14:57;9.73;;;7.77;;
3819;SDS011;1925;51.356;9.530;2023-06-19T07:17:23;8.90;;;8.00;;
3819;SDS011;1925;51.356;9.530;2023-06-19T07:19:49;12.13;;;9.13;;
3819;SDS011;1925;51.356;9.530;2023-06-19T07:22:14;9.57;;;8.60;;
3819;SDS011;1925;51.356;9.530;2023-06-19T07:24:41;11.23;;;8.40;;
3819;SDS011;1925;51.356;9.530;2023-06-19T07:27:06;8.00;;;7.00;;
3819;SDS011;1925;51.356;9.530;2023-06-19T07:29:32;7.93;;;7.10;;
3819;SDS011;1925;51.356;9.530;2023-06-19T07:31:58;10.47;;;8.30;;
3819;SDS011;1925;51.356;9.530;2023-06-19T07:34:27;9.30;;;8.40;;
3819;SDS011;1925;51.356;9.530;2023-06-19T07:36:53;9.37;;;8.43;;
3819;SDS011;1925;51.356;9.530;2023-06-19T07:39:19;10.00;;;7.43;;
3819;SDS011;1925;51.356;9.530;2023-06-19T07:41:45;10.53;;;8.77;;
3819;SDS011;1925;51.356;9.530;2023-06-19T07:44:11;9.10;;;8.30;;
3819;SDS011;1925;51.356;9.530;2023-06-19T07:46:37;8.30;;;7.60;;
3819;SDS011;1925;51.356;9.530;2023-06-19T07:49:03;8.90;;;8.00;;
3819;SDS011;1925;51.356;9.530;2023-06-19T07:51:29;7.57;;;6.97;;
3819;SDS011;1925;51.356;9.530;2023-06-19T07:53:55;8.90;;;8.00;;
3819;SDS011;1925;51.356;9.530;2023-06-19T07:56:21;8.30;;;7.60;;
3819;SDS011;1925;51.356;9.530;2023-06-19T07:58:47;7.73;;;7.10;;
3819;SDS011;1925;51.356;9.530;2023-06-19T08:01:13;9.30;;;8.40;;
3819;SDS011;1925;51.356;9.530;2023-06-19T08:03:39;8.43;;;7.73;;
3819;SDS011;1925;51.356;9.530;2023-06-19T08:06:05;8.70;;;8.00;;
3819;SDS011;1925;51.356;9.530;2023-06-19T08:08:31;10.07;;;7.57;;
3819;SDS011;1925;51.356;9.530;2023-06-19T08:10:56;8.93;;;8.23;;
3819;SDS011;1925;51.356;9.530;2023-06-19T08:13:22;8.43;;;7.73;;
3819;SDS011;1925;51.356;9.530;2023-06-19T08:15:48;8.67;;;7.63;;
3819;SDS011;1925;51.356;9.530;2023-06-19T08:18:14;8.77;;;8.07;;
3819;SDS011;1925;51.356;9.530;2023-06-19T08:20:40;8.30;;;7.50;;
3819;SDS011;1925;51.356;9.530;2023-06-19T08:23:06;9.93;;;7.50;;
3819;SDS011;1925;51.356;9.530;2023-06-19T08:25:32;9.10;;;8.20;;
3819;SDS011;1925;51.356;9.530;2023-06-19T08:27:58;8.80;;;7.87;;
3819;SDS011;1925;51.356;9.530;2023-06-19T08:30:24;10.80;;;7.50;;
3819;SDS011;1925;51.356;9.530;2023-06-19T08:32:51;9.20;;;8.00;;
3819;SDS011;1925;51.356;9.530;2023-06-19T08:35:16;9.63;;;8.70;;
3819;SDS011;1925;51.356;9.530;2023-06-19T08:37:43;8.50;;;7.80;;
3819;SDS011;1925;51.356;9.530;2023-06-19T08:40:09;9.03;;;8.10;;
3819;SDS011;1925;51.356;9.530;2023-06-19T08:42:36;9.03;;;8.23;;
3819;SDS011;1925;51.356;9.530;2023-06-19T08:45:02;8.40;;;7.70;;
3819;SDS011;1925;51.356;9.530;2023-06-19T08:47:31;8.83;;;8.03;;
3819;SDS011;1925;51.356;9.530;2023-06-19T08:49:58;10.57;;;7.37;;
3819;SDS011;1925;51.356;9.530;2023-06-19T08:52:24;10.60;;;8.10;;
3819;SDS011;1925;51.356;9.530;2023-06-19T08:54:51;7.57;;;6.97;;
3819;SDS011;1925;51.356;9.530;2023-06-19T08:57:17;8.73;;;7.50;;
3819;SDS011;1925;51.356;9.530;2023-06-19T08:59:49;8.30;;;7.50;;
3819;SDS011;1925;51.356;9.530;2023-06-19T09:02:15;9.20;;;7.77;;
3819;SDS011;1925;51.356;9.530;2023-06-19T09:04:42;8.33;;;7.57;;
3819;SDS011;1925;51.356;9.530;2023-06-19T09:07:08;7.20;;;6.50;;
3819;SDS011;1925;51.356;9.530;2023-06-19T09:09:34;6.67;;;6.17;;
3819;SDS011;1925;51.356;9.530;2023-06-19T09:12:04;7.43;;;6.60;;
3819;SDS011;1925;51.356;9.530;2023-06-19T09:14:37;6.13;;;5.63;;
3819;SDS011;1925;51.356;9.530;2023-06-19T09:17:04;6.30;;;5.80;;
3819;SDS011;1925;51.356;9.530;2023-06-19T09:19:30;7.27;;;6.67;;
3819;SDS011;1925;51.356;9.530;2023-06-19T09:22:06;8.10;;;6.87;;
3819;SDS011;1925;51.356;9.530;2023-06-19T09:24:33;6.70;;;6.20;;
3819;SDS011;1925;51.356;9.530;2023-06-19T09:27:10;6.50;;;5.90;;
3819;SDS011;1925;51.356;9.530;2023-06-19T09:29:38;8.20;;;7.50;;
3819;SDS011;1925;51.356;9.530;2023-06-19T09:32:14;6.47;;;5.97;;
3819;SDS011;1925;51.356;9.530;2023-06-19T09:34:41;6.27;;;5.87;;
3819;SDS011;1925;51.356;9.530;2023-06-19T09:37:07;6.13;;;5.53;;
3819;SDS011;1925;51.356;9.530;2023-06-19T09:39:34;6.47;;;5.87;;
3819;SDS011;1925;51.356;9.530;2023-06-19T09:42:00;5.93;;;5.43;;
3819;SDS011;1925;51.356;9.530;2023-06-19T09:44:28;6.47;;;5.87;;
3819;SDS011;1925;51.356;9.530;2023-06-19T09:46:55;6.97;;;6.27;;
3819;SDS011;1925;51.356;9.530;2023-06-19T09:49:21;6.27;;;5.77;;
3819;SDS011;1925;51.356;9.530;2023-06-19T09:51:49;5.87;;;5.37;;
3819;SDS011;1925;51.356;9.530;2023-06-19T09:54:16;5.70;;;5.20;;
3819;SDS011;1925;51.356;9.530;2023-06-19T09:56:42;6.37;;;5.10;;
3819;SDS011;1925;51.356;9.530;2023-06-19T09:59:08;5.50;;;5.00;;
3819;SDS011;1925;51.356;9.530;2023-06-19T10:01:34;6.47;;;5.87;;
3819;SDS011;1925;51.356;9.530;2023-06-19T10:04:03;5.27;;;4.80;;
3819;SDS011;1925;51.356;9.530;2023-06-19T10:06:29;5.70;;;5.20;;
3819;SDS011;1925;51.356;9.530;2023-06-19T10:08:55;4.90;;;4.60;;
3819;SDS011;1925;51.356;9.530;2023-06-19T10:11:21;4.27;;;3.97;;
3819;SDS011;1925;51.356;9.530;2023-06-19T10:13:49;5.77;;;5.17;;
3819;SDS011;1925;51.356;9.530;2023-06-19T10:16:21;4.97;;;4.57;;
3819;SDS011;1925;51.356;9.530;2023-06-19T10:18:47;6.70;;;4.23;;
3819;SDS011;1925;51.356;9.530;2023-06-19T10:21:20;5.50;;;4.70;;
3819;SDS011;1925;51.356;9.530;2023-06-19T10:23:53;5.03;;;4.63;;
3819;SDS011;1925;51.356;9.530;2023-06-19T10:26:20;4.63;;;4.33;;
3819;SDS011;1925;51.356;9.530;2023-06-19T10:28:46;4.60;;;4.20;;
3819;SDS011;1925;51.356;9.530;2023-06-19T10:31:13;5.47;;;5.07;;
3819;SDS011;1925;51.356;9.530;2023-06-19T10:33:39;5.40;;;5.00;;
3819;SDS011;1925;51.356;9.530;2023-06-19T10:36:18;4.63;;;4.30;;
3819;SDS011;1925;51.356;9.530;2023-06-19T10:38:45;4.47;;;4.17;;
3819;SDS011;1925;51.356;9.530;2023-06-19T10:41:18;5.07;;;4.67;;
3819;SDS011;1925;51.356;9.530;2023-06-19T10:43:58;5.00;;;4.70;;
3819;SDS011;1925;51.356;9.530;2023-06-19T10:46:24;6.00;;;4.50;;
3819;SDS011;1925;51.356;9.530;2023-06-19T10:48:55;4.23;;;3.93;;
3819;SDS011;1925;51.356;9.530;2023-06-19T10:51:26;6.17;;;4.50;;
3819;SDS011;1925;51.356;9.530;2023-06-19T10:53:53;8.90;;;4.53;;
3819;SDS011;1925;51.356;9.530;2023-06-19T10:56:20;3.97;;;3.50;;
3819;SDS011;1925;51.356;9.530;2023-06-19T10:58:46;4.83;;;4.53;;
3819;SDS011;1925;51.356;9.530;2023-06-19T11:01:12;5.50;;;3.90;;
3819;SDS011;1925;51.356;9.530;2023-06-19T11:03:38;4.27;;;3.93;;
3819;SDS011;1925;51.356;9.530;2023-06-19T11:06:04;4.93;;;3.90;;
3819;SDS011;1925;51.356;9.530;2023-06-19T11:08:30;4.07;;;3.67;;
3819;SDS011;1925;51.356;9.530;2023-06-19T11:10:56;6.73;;;3.63;;
3819;SDS011;1925;51.356;9.530;2023-06-19T11:13:22;3.97;;;3.67;;
3819;SDS011;1925;51.356;9.530;2023-06-19T11:15:48;5.73;;;3.87;;
3819;SDS011;1925;51.356;9.530;2023-06-19T11:18:15;4.33;;;4.00;;
3819;SDS011;1925;51.356;9.530;2023-06-19T11:20:45;5.13;;;4.43;;
3819;SDS011;1925;51.356;9.530;2023-06-19T11:23:12;4.40;;;4.00;;
3819;SDS011;1925;51.356;9.530;2023-06-19T11:25:39;5.20;;;4.27;;
3819;SDS011;1925;51.356;9.530;2023-06-19T11:28:12;4.53;;;4.10;;
3819;SDS011;1925;51.356;9.530;2023-06-19T11:30:38;4.47;;;4.17;;
3819;SDS011;1925;51.356;9.530;2023-06-19T11:33:20;4.47;;;4.07;;
3819;SDS011;1925;51.356;9.530;2023-06-19T11:35:53;3.97;;;3.67;;
3819;SDS011;1925;51.356;9.530;2023-06-19T11:38:20;4.60;;;4.20;;
3819;SDS011;1925;51.356;9.530;2023-06-19T11:40:46;4.63;;;4.23;;
3819;SDS011;1925;51.356;9.530;2023-06-19T11:43:22;3.87;;;3.57;;
3819;SDS011;1925;51.356;9.530;2023-06-19T11:45:49;5.47;;;5.07;;
3819;SDS011;1925;51.356;9.530;2023-06-19T11:48:23;4.50;;;4.10;;
3819;SDS011;1925;51.356;9.530;2023-06-19T11:50:49;4.17;;;3.87;;
3819;SDS011;1925;51.356;9.530;2023-06-19T11:53:16;4.93;;;4.53;;
3819;SDS011;1925;51.356;9.530;2023-06-19T11:55:42;4.47;;;4.07;;
3819;SDS011;1925;51.356;9.530;2023-06-19T11:58:08;5.20;;;4.70;;
3819;SDS011;1925;51.356;9.530;2023-06-19T12:00:35;6.13;;;5.00;;
3819;SDS011;1925;51.356;9.530;2023-06-19T12:03:02;4.70;;;4.37;;
3819;SDS011;1925;51.356;9.530;2023-06-19T12:05:28;4.40;;;4.10;;
3819;SDS011;1925;51.356;9.530;2023-06-19T12:07:54;5.50;;;5.10;;
3819;SDS011;1925;51.356;9.530;2023-06-19T12:10:20;4.60;;;4.30;;
3819;SDS011;1925;51.356;9.530;2023-06-19T12:12:46;5.00;;;4.60;;
3819;SDS011;1925;51.356;9.530;2023-06-19T12:15:12;4.33;;;3.93;;
3819;SDS011;1925;51.356;9.530;2023-06-19T12:17:38;5.50;;;4.27;;
3819;SDS011;1925;51.356;9.530;2023-06-19T12:20:04;6.50;;;4.23;;
3819;SDS011;1925;51.356;9.530;2023-06-19T12:22:31;5.23;;;4.83;;
3819;SDS011;1925;51.356;9.530;2023-06-19T12:24:57;5.10;;;4.60;;
3819;SDS011;1925;51.356;9.530;2023-06-19T12:27:23;4.97;;;4.57;;
3819;SDS011;1925;51.356;9.530;2023-06-19T12:29:49;4.23;;;3.83;;
3819;SDS011;1925;51.356;9.530;2023-06-19T12:32:15;4.43;;;4.13;;
3819;SDS011;1925;51.356;9.530;2023-06-19T12:34:41;7.30;;;4.73;;
3819;SDS011;1925;51.356;9.530;2023-06-19T12:37:11;5.30;;;4.90;;
3819;SDS011;1925;51.356;9.530;2023-06-19T12:39:38;4.40;;;4.10;;
3819;SDS011;1925;51.356;9.530;2023-06-19T12:42:04;5.00;;;4.47;;
3819;SDS011;1925;51.356;9.530;2023-06-19T12:44:30;4.57;;;4.20;;
3819;SDS011;1925;51.356;9.530;2023-06-19T12:46:56;4.80;;;4.40;;
3819;SDS011;1925;51.356;9.530;2023-06-19T12:49:23;4.30;;;3.97;;
3819;SDS011;1925;51.356;9.530;2023-06-19T12:51:49;4.50;;;4.07;;
3819;SDS011;1925;51.356;9.530;2023-06-19T12:54:16;4.23;;;3.93;;
3819;SDS011;1925;51.356;9.530;2023-06-19T12:56:42;4.50;;;4.10;;
3819;SDS011;1925;51.356;9.530;2023-06-19T12:59:08;5.40;;;4.30;;
3819;SDS011;1925;51.356;9.530;2023-06-19T13:01:35;4.63;;;4.33;;
3819;SDS011;1925;51.356;9.530;2023-06-19T13:04:01;4.17;;;3.77;;
3819;SDS011;1925;51.356;9.530;2023-06-19T13:06:27;7.20;;;6.60;;
3819;SDS011;1925;51.356;9.530;2023-06-19T13:08:53;5.63;;;5.13;;
3819;SDS011;1925;51.356;9.530;2023-06-19T13:11:19;6.50;;;6.00;;
3819;SDS011;1925;51.356;9.530;2023-06-19T13:13:45;5.00;;;4.60;;
3819;SDS011;1925;51.356;9.530;2023-06-19T13:16:11;4.83;;;4.40;;
3819;SDS011;1925;51.356;9.530;2023-06-19T13:18:37;4.60;;;4.30;;
3819;SDS011;1925;51.356;9.530;2023-06-19T13:21:03;4.33;;;3.97;;
3819;SDS011;1925;51.356;9.530;2023-06-19T13:23:28;3.87;;;3.57;;
3819;SDS011;1925;51.356;9.530;2023-06-19T13:25:56;4.70;;;4.30;;
3819;SDS011;1925;51.356;9.530;2023-06-19T13:28:21;6.50;;;5.90;;
3819;SDS011;1925;51.356;9.530;2023-06-19T13:30:48;6.87;;;5.67;;
3819;SDS011;1925;51.356;9.530;2023-06-19T13:33:14;6.00;;;5.60;;
3819;SDS011;1925;51.356;9.530;2023-06-19T13:35:41;5.40;;;5.00;;
3819;SDS011;1925;51.356;9.530;2023-06-19T13:38:07;5.60;;;4.53;;
3819;SDS011;1925;51.356;9.530;2023-06-19T13:40:34;7.30;;;6.13;;
3819;SDS011;1925;51.356;9.530;2023-06-19T13:43:00;5.43;;;5.03;;
3819;SDS011;1925;51.356;9.530;2023-06-19T13:45:28;5.70;;;5.10;;
3819;SDS011;1925;51.356;9.530;2023-06-19T13:47:55;4.57;;;4.17;;
3819;SDS011;1925;51.356;9.530;2023-06-19T13:50:23;6.60;;;4.47;;
3819;SDS011;1925;51.356;9.530;2023-06-19T13:52:49;4.27;;;3.87;;
3819;SDS011;1925;51.356;9.530;2023-06-19T13:55:15;4.43;;;4.03;;
3819;SDS011;1925;51.356;9.530;2023-06-19T13:57:42;4.70;;;4.30;;
3819;SDS011;1925;51.356;9.530;2023-06-19T14:00:08;3.80;;;3.60;;
3819;SDS011;1925;51.356;9.530;2023-06-19T14:02:35;4.20;;;3.80;;
3819;SDS011;1925;51.356;9.530;2023-06-19T14:05:03;4.73;;;4.37;;
3819;SDS011;1925;51.356;9.530;2023-06-19T14:07:29;4.40;;;3.73;;
3819;SDS011;1925;51.356;9.530;2023-06-19T14:09:55;4.53;;;4.03;;
3819;SDS011;1925;51.356;9.530;2023-06-19T14:12:21;6.47;;;4.60;;
3819;SDS011;1925;51.356;9.530;2023-06-19T14:14:47;4.53;;;4.13;;
3819;SDS011;1925;51.356;9.530;2023-06-19T14:17:13;4.60;;;4.20;;
3819;SDS011;1925;51.356;9.530;2023-06-19T14:19:39;5.40;;;3.70;;
3819;SDS011;1925;51.356;9.530;2023-06-19T14:22:05;4.17;;;3.87;;
3819;SDS011;1925;51.356;9.530;2023-06-19T14:24:31;4.70;;;4.30;;
3819;SDS011;1925;51.356;9.530;2023-06-19T14:26:57;4.57;;;4.17;;
3819;SDS011;1925;51.356;9.530;2023-06-19T14:29:23;5.83;;;4.77;;
3819;SDS011;1925;51.356;9.530;2023-06-19T14:31:52;5.60;;;5.20;;
3819;SDS011;1925;51.356;9.530;2023-06-19T14:34:19;6.10;;;5.00;;
3819;SDS011;1925;51.356;9.530;2023-06-19T14:36:45;4.37;;;4.07;;
3819;SDS011;1925;51.356;9.530;2023-06-19T14:39:11;5.67;;;5.17;;
3819;SDS011;1925;51.356;9.530;2023-06-19T14:41:37;5.77;;;5.37;;
3819;SDS011;1925;51.356;9.530;2023-06-19T14:44:04;4.87;;;4.47;;
3819;SDS011;1925;51.356;9.530;2023-06-19T14:46:31;5.23;;;4.83;;
3819;SDS011;1925;51.356;9.530;2023-06-19T14:48:57;5.10;;;4.80;;
3819;SDS011;1925;51.356;9.530;2023-06-19T14:51:24;6.03;;;5.53;;
3819;SDS011;1925;51.356;9.530;2023-06-19T14:53:51;5.80;;;5.20;;
3819;SDS011;1925;51.356;9.530;2023-06-19T14:56:16;5.73;;;5.23;;
3819;SDS011;1925;51.356;9.530;2023-06-19T14:58:42;5.53;;;4.93;;
3819;SDS011;1925;51.356;9.530;2023-06-19T15:01:08;4.67;;;4.20;;
3819;SDS011;1925;51.356;9.530;2023-06-19T15:03:35;4.53;;;4.13;;
3819;SDS011;1925;51.356;9.530;2023-06-19T15:06:02;4.70;;;4.40;;
3819;SDS011;1925;51.356;9.530;2023-06-19T15:08:28;4.77;;;4.37;;
3819;SDS011;1925;51.356;9.530;2023-06-19T15:10:56;5.17;;;4.67;;
3819;SDS011;1925;51.356;9.530;2023-06-19T15:13:22;4.30;;;4.00;;